Aviation Digital Data Service (ADDS)

Output produced by METARs form (1816 UTC 19 April 2019)
found at http://www.aviationweather.gov/metar/data/
 
METAR text: RJTU 190738Z 10009KT 9999 -SHRA FEW030 BKN060 20/07 Q1009 RMK 1CU030 5CU060 A2980
Conditions at: RJTU (UTSUNOMIYA (JGSD, JP) observed 0738 UTC 19 April 2019
Temperature: 20.0°C (68°F)
Dewpoint: 7.0°C (45°F) [RH = 43%]
Pressure (altimeter): 29.79 inches Hg (1009.0 mb)
Winds: from the E (100 degrees) at 10 MPH (9 knots; 4.6 m/s)
Visibility: 6 or more miles (10+ km)
Ceiling: 6000 feet AGL
Clouds: few clouds at 3000 feet AGL
broken clouds at 6000 feet AGL
Weather: -SHRA  (light rain showers)